sensor_id;sensor_type;location;lat;lon;timestamp;P1;durP1;ratioP1;P2;durP2;ratioP2
25091;SDS011;13082;52.374;4.946;2024-01-25T00:02:04;21.50;;;4.37;;
25091;SDS011;13082;52.374;4.946;2024-01-25T00:04:29;19.90;;;4.17;;
25091;SDS011;13082;52.374;4.946;2024-01-25T00:06:55;18.67;;;4.63;;
25091;SDS011;13082;52.374;4.946;2024-01-25T00:09:20;12.50;;;3.63;;
25091;SDS011;13082;52.374;4.946;2024-01-25T00:11:46;14.80;;;4.43;;
25091;SDS011;13082;52.374;4.946;2024-01-25T00:14:11;18.03;;;3.57;;
25091;SDS011;13082;52.374;4.946;2024-01-25T00:16:40;19.10;;;4.67;;
25091;SDS011;13082;52.374;4.946;2024-01-25T00:19:06;20.60;;;4.80;;
25091;SDS011;13082;52.374;4.946;2024-01-25T00:21:32;12.73;;;3.53;;
25091;SDS011;13082;52.374;4.946;2024-01-25T00:23:58;29.73;;;4.83;;
25091;SDS011;13082;52.374;4.946;2024-01-25T00:26:23;24.33;;;4.87;;
25091;SDS011;13082;52.374;4.946;2024-01-25T00:28:49;23.60;;;5.00;;
25091;SDS011;13082;52.374;4.946;2024-01-25T00:31:15;21.67;;;5.33;;
25091;SDS011;13082;52.374;4.946;2024-01-25T00:33:40;18.43;;;4.63;;
25091;SDS011;13082;52.374;4.946;2024-01-25T00:36:06;12.43;;;3.90;;
25091;SDS011;13082;52.374;4.946;2024-01-25T00:38:32;20.87;;;4.13;;
25091;SDS011;13082;52.374;4.946;2024-01-25T00:40:58;19.43;;;4.07;;
25091;SDS011;13082;52.374;4.946;2024-01-25T00:43:24;18.63;;;3.87;;
25091;SDS011;13082;52.374;4.946;2024-01-25T00:45:50;20.43;;;4.23;;
25091;SDS011;13082;52.374;4.946;2024-01-25T00:48:16;19.33;;;4.27;;
25091;SDS011;13082;52.374;4.946;2024-01-25T00:50:42;22.93;;;4.30;;
25091;SDS011;13082;52.374;4.946;2024-01-25T00:53:07;21.57;;;3.77;;
25091;SDS011;13082;52.374;4.946;2024-01-25T00:55:33;17.90;;;5.23;;
25091;SDS011;13082;52.374;4.946;2024-01-25T00:57:59;21.27;;;4.50;;
25091;SDS011;13082;52.374;4.946;2024-01-25T01:00:25;13.33;;;3.97;;
25091;SDS011;13082;52.374;4.946;2024-01-25T01:02:51;14.70;;;3.43;;
25091;SDS011;13082;52.374;4.946;2024-01-25T01:05:19;21.57;;;4.67;;
25091;SDS011;13082;52.374;4.946;2024-01-25T01:07:45;12.37;;;3.97;;
25091;SDS011;13082;52.374;4.946;2024-01-25T01:10:11;14.67;;;3.83;;
25091;SDS011;13082;52.374;4.946;2024-01-25T01:12:39;24.07;;;4.80;;
25091;SDS011;13082;52.374;4.946;2024-01-25T01:15:04;21.57;;;4.87;;
25091;SDS011;13082;52.374;4.946;2024-01-25T01:17:30;14.87;;;3.97;;
25091;SDS011;13082;52.374;4.946;2024-01-25T01:19:56;13.27;;;4.10;;
25091;SDS011;13082;52.374;4.946;2024-01-25T01:22:21;15.10;;;3.93;;
25091;SDS011;13082;52.374;4.946;2024-01-25T01:24:47;10.47;;;3.43;;
25091;SDS011;13082;52.374;4.946;2024-01-25T01:27:13;22.90;;;3.83;;
25091;SDS011;13082;52.374;4.946;2024-01-25T01:29:38;14.60;;;3.70;;
25091;SDS011;13082;52.374;4.946;2024-01-25T01:32:04;17.97;;;4.23;;
25091;SDS011;13082;52.374;4.946;2024-01-25T01:34:30;18.10;;;3.67;;
25091;SDS011;13082;52.374;4.946;2024-01-25T01:36:55;18.23;;;4.30;;
25091;SDS011;13082;52.374;4.946;2024-01-25T01:39:21;29.53;;;5.53;;
25091;SDS011;13082;52.374;4.946;2024-01-25T01:41:48;25.43;;;5.40;;
25091;SDS011;13082;52.374;4.946;2024-01-25T01:44:14;17.60;;;4.17;;
25091;SDS011;13082;52.374;4.946;2024-01-25T01:46:40;21.03;;;4.30;;
25091;SDS011;13082;52.374;4.946;2024-01-25T01:49:07;19.33;;;3.63;;
25091;SDS011;13082;52.374;4.946;2024-01-25T01:51:35;24.50;;;4.53;;
25091;SDS011;13082;52.374;4.946;2024-01-25T01:54:02;21.00;;;3.87;;
25091;SDS011;13082;52.374;4.946;2024-01-25T01:56:28;19.80;;;5.43;;
25091;SDS011;13082;52.374;4.946;2024-01-25T01:58:55;16.90;;;3.30;;
25091;SDS011;13082;52.374;4.946;2024-01-25T02:01:26;16.13;;;3.93;;
25091;SDS011;13082;52.374;4.946;2024-01-25T02:03:52;17.70;;;3.60;;
25091;SDS011;13082;52.374;4.946;2024-01-25T02:06:21;14.90;;;4.20;;
25091;SDS011;13082;52.374;4.946;2024-01-25T02:08:48;19.50;;;3.60;;
25091;SDS011;13082;52.374;4.946;2024-01-25T02:11:16;21.40;;;4.40;;
25091;SDS011;13082;52.374;4.946;2024-01-25T02:13:42;15.83;;;4.43;;
25091;SDS011;13082;52.374;4.946;2024-01-25T02:16:08;18.57;;;4.47;;
25091;SDS011;13082;52.374;4.946;2024-01-25T02:18:34;20.33;;;4.37;;
25091;SDS011;13082;52.374;4.946;2024-01-25T02:21:00;22.30;;;4.87;;
25091;SDS011;13082;52.374;4.946;2024-01-25T02:23:26;15.77;;;4.80;;
25091;SDS011;13082;52.374;4.946;2024-01-25T02:25:51;23.67;;;4.57;;
25091;SDS011;13082;52.374;4.946;2024-01-25T02:28:17;26.80;;;4.47;;
25091;SDS011;13082;52.374;4.946;2024-01-25T02:30:43;16.80;;;4.27;;
25091;SDS011;13082;52.374;4.946;2024-01-25T02:33:09;16.10;;;4.53;;
25091;SDS011;13082;52.374;4.946;2024-01-25T02:35:34;28.60;;;3.90;;
25091;SDS011;13082;52.374;4.946;2024-01-25T02:38:00;14.40;;;4.30;;
25091;SDS011;13082;52.374;4.946;2024-01-25T02:40:26;20.50;;;4.87;;
25091;SDS011;13082;52.374;4.946;2024-01-25T02:42:51;17.53;;;3.10;;
25091;SDS011;13082;52.374;4.946;2024-01-25T02:45:17;18.40;;;4.40;;
25091;SDS011;13082;52.374;4.946;2024-01-25T02:47:42;12.10;;;3.73;;
25091;SDS011;13082;52.374;4.946;2024-01-25T02:50:08;17.13;;;4.23;;
25091;SDS011;13082;52.374;4.946;2024-01-25T02:52:34;10.87;;;3.60;;
25091;SDS011;13082;52.374;4.946;2024-01-25T02:55:00;12.90;;;5.60;;
25091;SDS011;13082;52.374;4.946;2024-01-25T02:57:26;26.03;;;4.80;;
25091;SDS011;13082;52.374;4.946;2024-01-25T02:59:51;15.47;;;4.40;;
25091;SDS011;13082;52.374;4.946;2024-01-25T03:02:17;21.70;;;4.37;;
25091;SDS011;13082;52.374;4.946;2024-01-25T03:04:44;28.93;;;4.57;;
25091;SDS011;13082;52.374;4.946;2024-01-25T03:07:10;15.27;;;4.47;;
25091;SDS011;13082;52.374;4.946;2024-01-25T03:09:36;26.67;;;4.67;;
25091;SDS011;13082;52.374;4.946;2024-01-25T03:12:02;22.20;;;4.20;;
25091;SDS011;13082;52.374;4.946;2024-01-25T03:14:28;19.73;;;5.07;;
25091;SDS011;13082;52.374;4.946;2024-01-25T03:16:53;23.83;;;4.70;;
25091;SDS011;13082;52.374;4.946;2024-01-25T03:19:19;22.10;;;5.43;;
25091;SDS011;13082;52.374;4.946;2024-01-25T03:21:44;18.23;;;4.70;;
25091;SDS011;13082;52.374;4.946;2024-01-25T03:24:10;26.20;;;4.70;;
25091;SDS011;13082;52.374;4.946;2024-01-25T03:26:36;16.47;;;3.93;;
25091;SDS011;13082;52.374;4.946;2024-01-25T03:29:01;33.10;;;4.67;;
25091;SDS011;13082;52.374;4.946;2024-01-25T03:31:27;17.43;;;4.03;;
25091;SDS011;13082;52.374;4.946;2024-01-25T03:33:53;20.80;;;4.67;;
25091;SDS011;13082;52.374;4.946;2024-01-25T03:36:18;21.47;;;4.33;;
25091;SDS011;13082;52.374;4.946;2024-01-25T03:38:44;20.23;;;4.57;;
25091;SDS011;13082;52.374;4.946;2024-01-25T03:41:09;15.80;;;3.83;;
25091;SDS011;13082;52.374;4.946;2024-01-25T03:43:35;23.50;;;4.33;;
25091;SDS011;13082;52.374;4.946;2024-01-25T03:46:01;13.30;;;4.20;;
25091;SDS011;13082;52.374;4.946;2024-01-25T03:48:27;16.53;;;4.70;;
25091;SDS011;13082;52.374;4.946;2024-01-25T03:50:53;19.90;;;4.17;;
25091;SDS011;13082;52.374;4.946;2024-01-25T03:53:22;21.13;;;4.53;;
25091;SDS011;13082;52.374;4.946;2024-01-25T03:55:49;17.93;;;3.27;;
25091;SDS011;13082;52.374;4.946;2024-01-25T03:58:18;21.83;;;5.20;;
25091;SDS011;13082;52.374;4.946;2024-01-25T04:00:43;24.87;;;4.27;;
25091;SDS011;13082;52.374;4.946;2024-01-25T04:03:10;13.37;;;2.90;;
25091;SDS011;13082;52.374;4.946;2024-01-25T04:05:36;12.97;;;3.47;;
25091;SDS011;13082;52.374;4.946;2024-01-25T04:08:02;33.20;;;4.70;;
25091;SDS011;13082;52.374;4.946;2024-01-25T04:10:28;12.40;;;3.23;;
25091;SDS011;13082;52.374;4.946;2024-01-25T04:12:53;25.90;;;4.77;;
25091;SDS011;13082;52.374;4.946;2024-01-25T04:15:19;18.70;;;4.37;;
25091;SDS011;13082;52.374;4.946;2024-01-25T04:17:45;16.23;;;4.27;;
25091;SDS011;13082;52.374;4.946;2024-01-25T04:20:10;22.60;;;4.10;;
25091;SDS011;13082;52.374;4.946;2024-01-25T04:22:36;18.27;;;4.30;;
25091;SDS011;13082;52.374;4.946;2024-01-25T04:25:02;16.53;;;3.50;;
25091;SDS011;13082;52.374;4.946;2024-01-25T04:27:28;15.77;;;3.47;;
25091;SDS011;13082;52.374;4.946;2024-01-25T04:29:53;19.40;;;4.33;;
25091;SDS011;13082;52.374;4.946;2024-01-25T04:32:19;16.50;;;4.57;;
25091;SDS011;13082;52.374;4.946;2024-01-25T04:34:45;21.57;;;3.97;;
25091;SDS011;13082;52.374;4.946;2024-01-25T04:37:12;17.23;;;3.60;;
25091;SDS011;13082;52.374;4.946;2024-01-25T04:39:39;20.90;;;3.63;;
25091;SDS011;13082;52.374;4.946;2024-01-25T04:42:05;12.13;;;3.50;;
25091;SDS011;13082;52.374;4.946;2024-01-25T04:44:30;26.57;;;4.27;;
25091;SDS011;13082;52.374;4.946;2024-01-25T04:46:56;14.13;;;3.67;;
25091;SDS011;13082;52.374;4.946;2024-01-25T04:49:21;12.17;;;3.67;;
25091;SDS011;13082;52.374;4.946;2024-01-25T04:51:47;17.13;;;3.93;;
25091;SDS011;13082;52.374;4.946;2024-01-25T04:54:13;13.77;;;4.00;;
25091;SDS011;13082;52.374;4.946;2024-01-25T04:56:40;22.83;;;4.43;;
25091;SDS011;13082;52.374;4.946;2024-01-25T04:59:06;17.77;;;4.20;;
25091;SDS011;13082;52.374;4.946;2024-01-25T05:01:32;20.43;;;3.80;;
25091;SDS011;13082;52.374;4.946;2024-01-25T05:03:57;23.20;;;4.50;;
25091;SDS011;13082;52.374;4.946;2024-01-25T05:06:23;17.37;;;3.80;;
25091;SDS011;13082;52.374;4.946;2024-01-25T05:08:49;14.60;;;3.70;;
25091;SDS011;13082;52.374;4.946;2024-01-25T05:11:14;29.63;;;4.23;;
25091;SDS011;13082;52.374;4.946;2024-01-25T05:13:40;22.53;;;4.20;;
25091;SDS011;13082;52.374;4.946;2024-01-25T05:16:05;25.97;;;5.13;;
25091;SDS011;13082;52.374;4.946;2024-01-25T05:18:31;13.57;;;3.13;;
25091;SDS011;13082;52.374;4.946;2024-01-25T05:20:57;13.50;;;3.57;;
25091;SDS011;13082;52.374;4.946;2024-01-25T05:23:23;24.20;;;5.10;;
25091;SDS011;13082;52.374;4.946;2024-01-25T05:25:48;27.23;;;4.73;;
25091;SDS011;13082;52.374;4.946;2024-01-25T05:28:14;15.07;;;4.50;;
25091;SDS011;13082;52.374;4.946;2024-01-25T05:30:39;15.87;;;3.27;;
25091;SDS011;13082;52.374;4.946;2024-01-25T05:33:05;19.67;;;4.27;;
25091;SDS011;13082;52.374;4.946;2024-01-25T05:35:31;23.83;;;4.40;;
25091;SDS011;13082;52.374;4.946;2024-01-25T05:37:59;15.20;;;3.23;;
25091;SDS011;13082;52.374;4.946;2024-01-25T05:40:25;14.57;;;4.03;;
25091;SDS011;13082;52.374;4.946;2024-01-25T05:42:50;20.07;;;3.90;;
25091;SDS011;13082;52.374;4.946;2024-01-25T05:45:16;18.10;;;3.47;;
25091;SDS011;13082;52.374;4.946;2024-01-25T05:47:44;29.40;;;6.07;;
25091;SDS011;13082;52.374;4.946;2024-01-25T05:50:10;16.20;;;4.47;;
25091;SDS011;13082;52.374;4.946;2024-01-25T05:52:36;17.83;;;3.97;;
25091;SDS011;13082;52.374;4.946;2024-01-25T05:55:03;25.43;;;3.80;;
25091;SDS011;13082;52.374;4.946;2024-01-25T05:57:29;14.03;;;3.93;;
25091;SDS011;13082;52.374;4.946;2024-01-25T05:59:55;19.07;;;3.63;;
25091;SDS011;13082;52.374;4.946;2024-01-25T06:02:20;20.57;;;4.17;;
25091;SDS011;13082;52.374;4.946;2024-01-25T06:04:46;14.33;;;3.60;;
25091;SDS011;13082;52.374;4.946;2024-01-25T06:07:11;18.37;;;3.60;;
25091;SDS011;13082;52.374;4.946;2024-01-25T06:09:37;12.70;;;3.73;;
25091;SDS011;13082;52.374;4.946;2024-01-25T06:12:03;9.53;;;3.03;;
25091;SDS011;13082;52.374;4.946;2024-01-25T06:14:29;18.87;;;4.83;;
25091;SDS011;13082;52.374;4.946;2024-01-25T06:16:55;17.03;;;4.37;;
25091;SDS011;13082;52.374;4.946;2024-01-25T06:19:21;18.87;;;4.63;;
25091;SDS011;13082;52.374;4.946;2024-01-25T06:21:47;23.47;;;6.60;;
25091;SDS011;13082;52.374;4.946;2024-01-25T06:24:12;15.93;;;5.57;;
25091;SDS011;13082;52.374;4.946;2024-01-25T06:26:38;15.17;;;5.37;;
25091;SDS011;13082;52.374;4.946;2024-01-25T06:29:04;18.27;;;4.27;;
25091;SDS011;13082;52.374;4.946;2024-01-25T06:31:29;13.30;;;3.77;;
25091;SDS011;13082;52.374;4.946;2024-01-25T06:33:55;13.50;;;2.97;;
25091;SDS011;13082;52.374;4.946;2024-01-25T06:36:21;18.53;;;4.83;;
25091;SDS011;13082;52.374;4.946;2024-01-25T06:38:47;18.43;;;3.70;;
25091;SDS011;13082;52.374;4.946;2024-01-25T06:41:13;26.53;;;5.20;;
25091;SDS011;13082;52.374;4.946;2024-01-25T06:43:40;19.27;;;4.33;;
25091;SDS011;13082;52.374;4.946;2024-01-25T06:46:06;19.13;;;3.43;;
25091;SDS011;13082;52.374;4.946;2024-01-25T06:48:32;17.93;;;4.23;;
25091;SDS011;13082;52.374;4.946;2024-01-25T06:50:58;27.50;;;4.77;;
25091;SDS011;13082;52.374;4.946;2024-01-25T06:53:24;14.93;;;4.03;;
25091;SDS011;13082;52.374;4.946;2024-01-25T06:55:49;18.37;;;5.10;;
25091;SDS011;13082;52.374;4.946;2024-01-25T06:58:15;13.10;;;4.23;;
25091;SDS011;13082;52.374;4.946;2024-01-25T07:00:41;17.40;;;6.77;;
25091;SDS011;13082;52.374;4.946;2024-01-25T07:03:07;18.13;;;4.90;;
25091;SDS011;13082;52.374;4.946;2024-01-25T07:05:33;20.17;;;4.40;;
25091;SDS011;13082;52.374;4.946;2024-01-25T07:08:00;25.07;;;3.77;;
25091;SDS011;13082;52.374;4.946;2024-01-25T07:10:26;15.53;;;3.97;;
25091;SDS011;13082;52.374;4.946;2024-01-25T07:12:52;11.97;;;3.63;;
25091;SDS011;13082;52.374;4.946;2024-01-25T07:15:18;16.70;;;5.37;;
25091;SDS011;13082;52.374;4.946;2024-01-25T07:17:44;33.47;;;5.30;;
25091;SDS011;13082;52.374;4.946;2024-01-25T07:20:10;12.80;;;5.40;;
25091;SDS011;13082;52.374;4.946;2024-01-25T07:22:36;20.33;;;4.83;;
25091;SDS011;13082;52.374;4.946;2024-01-25T07:25:02;18.40;;;3.70;;
25091;SDS011;13082;52.374;4.946;2024-01-25T07:27:28;24.07;;;4.17;;
25091;SDS011;13082;52.374;4.946;2024-01-25T07:29:53;26.37;;;4.20;;
25091;SDS011;13082;52.374;4.946;2024-01-25T07:32:19;18.77;;;3.77;;
25091;SDS011;13082;52.374;4.946;2024-01-25T07:34:45;16.23;;;3.40;;
25091;SDS011;13082;52.374;4.946;2024-01-25T07:37:11;18.03;;;3.10;;
25091;SDS011;13082;52.374;4.946;2024-01-25T07:39:37;16.37;;;3.67;;
25091;SDS011;13082;52.374;4.946;2024-01-25T07:42:03;15.17;;;4.07;;
25091;SDS011;13082;52.374;4.946;2024-01-25T07:44:29;20.93;;;4.33;;
25091;SDS011;13082;52.374;4.946;2024-01-25T07:46:54;19.17;;;4.30;;
25091;SDS011;13082;52.374;4.946;2024-01-25T07:49:20;16.87;;;3.50;;
25091;SDS011;13082;52.374;4.946;2024-01-25T07:51:46;17.63;;;4.30;;
25091;SDS011;13082;52.374;4.946;2024-01-25T07:54:12;14.50;;;5.03;;
25091;SDS011;13082;52.374;4.946;2024-01-25T07:56:39;26.77;;;4.73;;
25091;SDS011;13082;52.374;4.946;2024-01-25T07:59:05;22.73;;;4.80;;
25091;SDS011;13082;52.374;4.946;2024-01-25T08:01:30;17.57;;;4.20;;
25091;SDS011;13082;52.374;4.946;2024-01-25T08:03:56;27.33;;;4.47;;
25091;SDS011;13082;52.374;4.946;2024-01-25T08:06:22;18.17;;;5.57;;
25091;SDS011;13082;52.374;4.946;2024-01-25T08:08:47;18.87;;;4.57;;
25091;SDS011;13082;52.374;4.946;2024-01-25T08:11:13;25.03;;;5.37;;
25091;SDS011;13082;52.374;4.946;2024-01-25T08:13:43;28.77;;;4.87;;
25091;SDS011;13082;52.374;4.946;2024-01-25T08:16:09;29.83;;;5.30;;
25091;SDS011;13082;52.374;4.946;2024-01-25T08:18:39;29.03;;;5.13;;
25091;SDS011;13082;52.374;4.946;2024-01-25T08:21:05;22.03;;;4.80;;
25091;SDS011;13082;52.374;4.946;2024-01-25T08:23:31;14.60;;;4.43;;
25091;SDS011;13082;52.374;4.946;2024-01-25T08:25:57;20.53;;;5.30;;
25091;SDS011;13082;52.374;4.946;2024-01-25T08:28:22;21.80;;;5.50;;
25091;SDS011;13082;52.374;4.946;2024-01-25T08:30:48;27.23;;;5.60;;
25091;SDS011;13082;52.374;4.946;2024-01-25T08:33:14;15.20;;;4.47;;
25091;SDS011;13082;52.374;4.946;2024-01-25T08:35:40;27.30;;;5.57;;
25091;SDS011;13082;52.374;4.946;2024-01-25T08:38:08;21.93;;;6.40;;
25091;SDS011;13082;52.374;4.946;2024-01-25T08:40:33;27.83;;;5.47;;
25091;SDS011;13082;52.374;4.946;2024-01-25T08:42:59;18.67;;;4.30;;
25091;SDS011;13082;52.374;4.946;2024-01-25T08:45:25;27.67;;;5.10;;
25091;SDS011;13082;52.374;4.946;2024-01-25T08:47:50;19.87;;;4.90;;
25091;SDS011;13082;52.374;4.946;2024-01-25T08:50:17;20.77;;;4.80;;
25091;SDS011;13082;52.374;4.946;2024-01-25T08:52:43;14.33;;;4.07;;
25091;SDS011;13082;52.374;4.946;2024-01-25T08:55:09;22.20;;;5.97;;
25091;SDS011;13082;52.374;4.946;2024-01-25T08:57:35;16.97;;;4.90;;
25091;SDS011;13082;52.374;4.946;2024-01-25T09:00:01;20.17;;;4.37;;
25091;SDS011;13082;52.374;4.946;2024-01-25T09:02:27;24.77;;;5.10;;
25091;SDS011;13082;52.374;4.946;2024-01-25T09:04:54;15.17;;;4.70;;
25091;SDS011;13082;52.374;4.946;2024-01-25T09:07:20;18.97;;;4.97;;
25091;SDS011;13082;52.374;4.946;2024-01-25T09:09:46;19.77;;;4.33;;
25091;SDS011;13082;52.374;4.946;2024-01-25T09:12:13;14.00;;;4.40;;
25091;SDS011;13082;52.374;4.946;2024-01-25T09:14:39;24.23;;;6.13;;
25091;SDS011;13082;52.374;4.946;2024-01-25T09:17:05;21.17;;;4.70;;
25091;SDS011;13082;52.374;4.946;2024-01-25T09:19:30;13.40;;;4.30;;
25091;SDS011;13082;52.374;4.946;2024-01-25T09:21:56;17.43;;;4.77;;
25091;SDS011;13082;52.374;4.946;2024-01-25T09:24:26;21.33;;;4.83;;
25091;SDS011;13082;52.374;4.946;2024-01-25T09:26:51;15.77;;;4.87;;
25091;SDS011;13082;52.374;4.946;2024-01-25T09:29:17;19.67;;;4.77;;
25091;SDS011;13082;52.374;4.946;2024-01-25T09:31:42;19.33;;;5.27;;
25091;SDS011;13082;52.374;4.946;2024-01-25T09:34:08;19.03;;;4.03;;
25091;SDS011;13082;52.374;4.946;2024-01-25T09:36:34;24.30;;;5.57;;
25091;SDS011;13082;52.374;4.946;2024-01-25T09:38:59;12.57;;;4.47;;
25091;SDS011;13082;52.374;4.946;2024-01-25T09:41:25;17.87;;;5.60;;
25091;SDS011;13082;52.374;4.946;2024-01-25T09:43:51;24.23;;;4.00;;
25091;SDS011;13082;52.374;4.946;2024-01-25T09:46:18;16.53;;;4.10;;
25091;SDS011;13082;52.374;4.946;2024-01-25T09:48:43;18.60;;;4.50;;
25091;SDS011;13082;52.374;4.946;2024-01-25T09:51:11;16.27;;;4.50;;
25091;SDS011;13082;52.374;4.946;2024-01-25T09:53:38;14.67;;;4.50;;
25091;SDS011;13082;52.374;4.946;2024-01-25T09:56:06;22.97;;;4.60;;
25091;SDS011;13082;52.374;4.946;2024-01-25T09:58:37;19.80;;;5.03;;
25091;SDS011;13082;52.374;4.946;2024-01-25T10:01:08;20.57;;;4.73;;
25091;SDS011;13082;52.374;4.946;2024-01-25T10:03:35;22.13;;;5.23;;
25091;SDS011;13082;52.374;4.946;2024-01-25T10:06:02;14.23;;;4.57;;
25091;SDS011;13082;52.374;4.946;2024-01-25T10:08:28;19.87;;;4.87;;
25091;SDS011;13082;52.374;4.946;2024-01-25T10:10:55;33.33;;;5.53;;
25091;SDS011;13082;52.374;4.946;2024-01-25T10:13:20;15.80;;;5.53;;
25091;SDS011;13082;52.374;4.946;2024-01-25T10:15:47;23.93;;;4.07;;
25091;SDS011;13082;52.374;4.946;2024-01-25T10:18:13;18.37;;;5.30;;
25091;SDS011;13082;52.374;4.946;2024-01-25T10:20:39;18.63;;;4.63;;
25091;SDS011;13082;52.374;4.946;2024-01-25T10:23:07;20.00;;;4.37;;
25091;SDS011;13082;52.374;4.946;2024-01-25T10:25:33;20.50;;;5.73;;
25091;SDS011;13082;52.374;4.946;2024-01-25T10:28:05;16.70;;;5.27;;
25091;SDS011;13082;52.374;4.946;2024-01-25T10:30:32;19.23;;;4.37;;
25091;SDS011;13082;52.374;4.946;2024-01-25T10:33:00;17.70;;;5.17;;
25091;SDS011;13082;52.374;4.946;2024-01-25T10:35:26;26.43;;;4.97;;
25091;SDS011;13082;52.374;4.946;2024-01-25T10:37:52;15.43;;;4.17;;
25091;SDS011;13082;52.374;4.946;2024-01-25T10:40:19;27.43;;;6.43;;
25091;SDS011;13082;52.374;4.946;2024-01-25T10:42:45;16.43;;;4.97;;
25091;SDS011;13082;52.374;4.946;2024-01-25T10:45:11;19.53;;;5.77;;
25091;SDS011;13082;52.374;4.946;2024-01-25T10:47:37;11.57;;;4.37;;
25091;SDS011;13082;52.374;4.946;2024-01-25T10:50:05;13.90;;;4.93;;
25091;SDS011;13082;52.374;4.946;2024-01-25T10:52:36;20.50;;;5.83;;
25091;SDS011;13082;52.374;4.946;2024-01-25T10:55:04;22.63;;;4.90;;
25091;SDS011;13082;52.374;4.946;2024-01-25T10:57:42;17.67;;;4.10;;
25091;SDS011;13082;52.374;4.946;2024-01-25T11:00:10;18.70;;;4.83;;
25091;SDS011;13082;52.374;4.946;2024-01-25T11:02:41;19.30;;;5.80;;
25091;SDS011;13082;52.374;4.946;2024-01-25T11:05:16;19.40;;;5.77;;
25091;SDS011;13082;52.374;4.946;2024-01-25T11:07:48;22.27;;;5.47;;
25091;SDS011;13082;52.374;4.946;2024-01-25T11:10:16;24.63;;;6.13;;
25091;SDS011;13082;52.374;4.946;2024-01-25T11:13:16;23.93;;;5.63;;
25091;SDS011;13082;52.374;4.946;2024-01-25T11:15:39;25.03;;;4.97;;
25091;SDS011;13082;52.374;4.946;2024-01-25T11:18:07;28.77;;;5.77;;
25091;SDS011;13082;52.374;4.946;2024-01-25T11:20:34;25.33;;;5.70;;
25091;SDS011;13082;52.374;4.946;2024-01-25T11:23:04;15.93;;;4.93;;
25091;SDS011;13082;52.374;4.946;2024-01-25T11:25:32;19.40;;;5.83;;
25091;SDS011;13082;52.374;4.946;2024-01-25T11:28:00;16.87;;;4.77;;
25091;SDS011;13082;52.374;4.946;2024-01-25T11:30:26;28.93;;;5.57;;
25091;SDS011;13082;52.374;4.946;2024-01-25T11:32:53;23.53;;;5.17;;
25091;SDS011;13082;52.374;4.946;2024-01-25T11:35:18;17.13;;;5.07;;
25091;SDS011;13082;52.374;4.946;2024-01-25T11:37:45;27.30;;;5.43;;
25091;SDS011;13082;52.374;4.946;2024-01-25T11:40:11;17.90;;;4.57;;
25091;SDS011;13082;52.374;4.946;2024-01-25T11:42:38;18.77;;;4.97;;
25091;SDS011;13082;52.374;4.946;2024-01-25T11:45:05;13.00;;;5.03;;
25091;SDS011;13082;52.374;4.946;2024-01-25T11:47:33;17.30;;;6.00;;
25091;SDS011;13082;52.374;4.946;2024-01-25T11:49:59;23.03;;;4.90;;
25091;SDS011;13082;52.374;4.946;2024-01-25T11:52:25;20.07;;;5.90;;
25091;SDS011;13082;52.374;4.946;2024-01-25T11:54:51;29.27;;;6.10;;
25091;SDS011;13082;52.374;4.946;2024-01-25T11:57:17;21.27;;;4.87;;
25091;SDS011;13082;52.374;4.946;2024-01-25T11:59:43;23.03;;;4.40;;
25091;SDS011;13082;52.374;4.946;2024-01-25T12:02:11;19.93;;;5.83;;
25091;SDS011;13082;52.374;4.946;2024-01-25T12:04:40;18.30;;;4.57;;
25091;SDS011;13082;52.374;4.946;2024-01-25T12:07:05;19.10;;;4.53;;
25091;SDS011;13082;52.374;4.946;2024-01-25T12:09:32;21.93;;;5.10;;
25091;SDS011;13082;52.374;4.946;2024-01-25T12:12:00;13.57;;;4.50;;
25091;SDS011;13082;52.374;4.946;2024-01-25T12:14:25;23.20;;;4.13;;
25091;SDS011;13082;52.374;4.946;2024-01-25T12:16:54;15.83;;;4.57;;
25091;SDS011;13082;52.374;4.946;2024-01-25T12:19:20;15.53;;;4.90;;
25091;SDS011;13082;52.374;4.946;2024-01-25T12:21:46;22.37;;;4.73;;
25091;SDS011;13082;52.374;4.946;2024-01-25T12:24:12;15.90;;;4.03;;
25091;SDS011;13082;52.374;4.946;2024-01-25T12:26:38;18.07;;;4.70;;
25091;SDS011;13082;52.374;4.946;2024-01-25T12:29:03;23.87;;;6.27;;
25091;SDS011;13082;52.374;4.946;2024-01-25T12:31:30;19.60;;;5.00;;
25091;SDS011;13082;52.374;4.946;2024-01-25T12:33:55;17.20;;;5.13;;
25091;SDS011;13082;52.374;4.946;2024-01-25T12:36:22;15.40;;;5.23;;
25091;SDS011;13082;52.374;4.946;2024-01-25T12:38:47;15.07;;;6.33;;
25091;SDS011;13082;52.374;4.946;2024-01-25T12:41:14;22.17;;;4.90;;
25091;SDS011;13082;52.374;4.946;2024-01-25T12:43:40;19.37;;;5.23;;
25091;SDS011;13082;52.374;4.946;2024-01-25T12:46:06;24.47;;;6.27;;
25091;SDS011;13082;52.374;4.946;2024-01-25T12:48:31;19.67;;;6.13;;
25091;SDS011;13082;52.374;4.946;2024-01-25T12:50:57;23.67;;;5.93;;
25091;SDS011;13082;52.374;4.946;2024-01-25T12:53:23;19.43;;;5.43;;
25091;SDS011;13082;52.374;4.946;2024-01-25T12:55:49;11.80;;;4.50;;
25091;SDS011;13082;52.374;4.946;2024-01-25T12:58:14;27.10;;;6.07;;
25091;SDS011;13082;52.374;4.946;2024-01-25T13:00:40;21.50;;;6.30;;
25091;SDS011;13082;52.374;4.946;2024-01-25T13:03:06;14.13;;;4.97;;
25091;SDS011;13082;52.374;4.946;2024-01-25T13:05:31;16.00;;;5.53;;
25091;SDS011;13082;52.374;4.946;2024-01-25T13:07:59;22.77;;;6.03;;
25091;SDS011;13082;52.374;4.946;2024-01-25T13:10:27;22.97;;;5.20;;
25091;SDS011;13082;52.374;4.946;2024-01-25T13:12:52;22.73;;;5.33;;
25091;SDS011;13082;52.374;4.946;2024-01-25T13:15:18;30.67;;;8.53;;
25091;SDS011;13082;52.374;4.946;2024-01-25T13:17:44;21.07;;;6.40;;
25091;SDS011;13082;52.374;4.946;2024-01-25T13:20:10;18.37;;;5.33;;
25091;SDS011;13082;52.374;4.946;2024-01-25T13:22:36;21.57;;;6.63;;
25091;SDS011;13082;52.374;4.946;2024-01-25T13:25:02;22.27;;;5.83;;
25091;SDS011;13082;52.374;4.946;2024-01-25T13:27:28;18.57;;;6.50;;
25091;SDS011;13082;52.374;4.946;2024-01-25T13:29:54;28.50;;;6.33;;
25091;SDS011;13082;52.374;4.946;2024-01-25T13:32:20;15.10;;;5.73;;
25091;SDS011;13082;52.374;4.946;2024-01-25T13:34:47;26.63;;;7.13;;
25091;SDS011;13082;52.374;4.946;2024-01-25T13:37:12;21.27;;;6.43;;
25091;SDS011;13082;52.374;4.946;2024-01-25T13:39:38;18.37;;;5.50;;
25091;SDS011;13082;52.374;4.946;2024-01-25T13:42:04;15.53;;;7.23;;
25091;SDS011;13082;52.374;4.946;2024-01-25T13:44:29;18.90;;;5.77;;
25091;SDS011;13082;52.374;4.946;2024-01-25T13:46:55;14.60;;;5.73;;
25091;SDS011;13082;52.374;4.946;2024-01-25T13:49:24;25.27;;;6.33;;
25091;SDS011;13082;52.374;4.946;2024-01-25T13:51:49;17.93;;;6.37;;
25091;SDS011;13082;52.374;4.946;2024-01-25T13:54:15;20.97;;;6.83;;
25091;SDS011;13082;52.374;4.946;2024-01-25T13:56:41;30.47;;;7.40;;
25091;SDS011;13082;52.374;4.946;2024-01-25T13:59:06;16.57;;;6.47;;
25091;SDS011;13082;52.374;4.946;2024-01-25T14:01:32;19.03;;;6.70;;
25091;SDS011;13082;52.374;4.946;2024-01-25T14:03:57;20.37;;;6.73;;
25091;SDS011;13082;52.374;4.946;2024-01-25T14:06:23;13.03;;;6.00;;
25091;SDS011;13082;52.374;4.946;2024-01-25T14:08:49;19.80;;;6.97;;
25091;SDS011;13082;52.374;4.946;2024-01-25T14:11:15;21.90;;;7.13;;
25091;SDS011;13082;52.374;4.946;2024-01-25T14:13:41;18.30;;;7.33;;
25091;SDS011;13082;52.374;4.946;2024-01-25T14:16:07;22.63;;;8.07;;
25091;SDS011;13082;52.374;4.946;2024-01-25T14:18:38;23.07;;;7.80;;
25091;SDS011;13082;52.374;4.946;2024-01-25T14:21:04;23.07;;;7.53;;
25091;SDS011;13082;52.374;4.946;2024-01-25T14:23:30;26.37;;;8.57;;
25091;SDS011;13082;52.374;4.946;2024-01-25T14:25:56;26.43;;;7.50;;
25091;SDS011;13082;52.374;4.946;2024-01-25T14:28:22;34.13;;;8.20;;